createdAt,value
2018-10-16T00:00:26.154Z,967.25
2018-10-16T00:01:26.066Z,967.20
2018-10-16T00:02:26.010Z,967.23
2018-10-16T00:03:25.968Z,967.23
2018-10-16T00:04:25.910Z,967.23
2018-10-16T00:05:25.918Z,967.24
2018-10-16T00:06:25.812Z,967.21
2018-10-16T00:07:25.767Z,967.25
2018-10-16T00:08:25.718Z,967.23
2018-10-16T00:09:25.708Z,967.23
2018-10-16T00:10:25.642Z,967.25
2018-10-16T00:11:25.597Z,967.21
2018-10-16T00:12:25.521Z,967.22
2018-10-16T00:13:25.488Z,967.23
2018-10-16T00:14:25.418Z,967.23
2018-10-16T00:15:25.399Z,967.22
2018-10-16T00:16:25.322Z,967.22
2018-10-16T00:17:25.274Z,967.24
2018-10-16T00:18:25.226Z,967.19
2018-10-16T00:19:25.171Z,967.19
2018-10-16T00:20:25.159Z,967.21
2018-10-16T00:21:25.108Z,967.22
2018-10-16T00:22:25.023Z,967.21
2018-10-16T00:23:24.971Z,967.20
2018-10-16T00:24:24.926Z,967.22
2018-10-16T00:25:24.875Z,967.20
2018-10-16T00:26:24.856Z,967.20
2018-10-16T00:27:24.792Z,967.15
2018-10-16T00:28:24.729Z,967.21
2018-10-16T00:29:24.711Z,967.15
2018-10-16T00:30:24.672Z,967.16
2018-10-16T00:31:24.618Z,967.13
2018-10-16T00:32:24.547Z,967.13
2018-10-16T00:33:24.473Z,967.13
2018-10-16T00:34:24.434Z,967.13
2018-10-16T00:35:24.409Z,967.12
2018-10-16T00:36:24.323Z,967.10
2018-10-16T00:37:24.277Z,967.09
2018-10-16T00:38:24.235Z,967.07
2018-10-16T00:39:24.175Z,967.05
2018-10-16T00:40:24.156Z,967.03
2018-10-16T00:41:24.074Z,967.02
2018-10-16T00:42:24.030Z,967.01
2018-10-16T00:43:24.011Z,966.97
2018-10-16T00:44:23.922Z,966.96
2018-10-16T00:45:23.872Z,966.90
2018-10-16T00:46:23.828Z,966.92
2018-10-16T00:47:23.778Z,966.90
2018-10-16T00:48:23.755Z,966.89
2018-10-16T00:49:23.672Z,966.89
2018-10-16T00:50:23.625Z,966.87
2018-10-16T00:51:23.574Z,966.86
2018-10-16T00:52:23.566Z,966.85
2018-10-16T00:53:23.474Z,966.85
2018-10-16T00:54:23.422Z,966.86
2018-10-16T00:55:23.385Z,966.87
2018-10-16T00:56:23.325Z,966.90
2018-10-16T00:57:23.299Z,966.87
2018-10-16T00:58:23.273Z,966.90
2018-10-16T00:59:23.174Z,966.90
2018-10-16T01:00:23.124Z,966.90
2018-10-16T01:01:23.075Z,966.88
2018-10-16T01:02:23.023Z,966.89
2018-10-16T01:03:23.025Z,966.88
2018-10-16T01:04:22.919Z,966.91
2018-10-16T01:05:22.874Z,966.86
2018-10-16T01:06:22.820Z,966.89
2018-10-16T01:07:22.775Z,966.90
2018-10-16T01:08:22.760Z,966.94
2018-10-16T01:09:22.669Z,966.94
2018-10-16T01:10:22.624Z,966.98
2018-10-16T01:11:22.569Z,966.96
2018-10-16T01:12:22.519Z,966.98
2018-10-16T01:13:22.493Z,966.98
2018-10-16T01:14:22.457Z,967.01
2018-10-16T01:15:22.377Z,967.01
2018-10-16T01:16:22.320Z,967.01
2018-10-16T01:17:22.332Z,967.05
2018-10-16T01:18:22.220Z,966.98
2018-10-16T01:19:22.171Z,967.02
2018-10-16T01:20:22.121Z,967.05
2018-10-16T01:21:22.070Z,967.05
2018-10-16T01:22:22.046Z,967.05
2018-10-16T01:23:22.006Z,967.05
2018-10-16T01:24:21.922Z,967.03
2018-10-16T01:25:21.871Z,967.05
2018-10-16T01:26:21.822Z,967.07
2018-10-16T01:27:21.768Z,967.08
2018-10-16T01:28:21.760Z,967.10
2018-10-16T01:29:21.675Z,967.08
2018-10-16T01:30:21.626Z,967.07
2018-10-16T01:31:21.627Z,967.07
2018-10-16T01:32:21.529Z,967.09
2018-10-16T01:33:21.474Z,967.10
2018-10-16T01:34:21.424Z,967.12
2018-10-16T01:35:21.380Z,967.15
2018-10-16T01:36:21.375Z,967.18
2018-10-16T01:37:21.278Z,967.19
2018-10-16T01:38:21.224Z,967.16
2018-10-16T01:39:21.186Z,967.18
2018-10-16T01:40:21.130Z,967.17
2018-10-16T01:41:21.109Z,967.19
2018-10-16T01:42:21.022Z,967.21
2018-10-16T01:43:20.972Z,967.21
2018-10-16T01:44:20.955Z,967.21
2018-10-16T01:45:20.884Z,967.17
2018-10-16T01:46:20.825Z,967.18
2018-10-16T01:47:20.806Z,967.16
2018-10-16T01:48:20.728Z,967.19
2018-10-16T01:49:20.709Z,967.17
2018-10-16T01:50:20.626Z,967.17
2018-10-16T01:51:20.608Z,967.19
2018-10-16T01:52:20.530Z,967.18
2018-10-16T01:53:20.497Z,967.17
2018-10-16T01:54:20.463Z,967.12
2018-10-16T01:55:20.380Z,967.13
2018-10-16T01:56:20.324Z,967.13
2018-10-16T01:57:20.275Z,967.15
2018-10-16T01:58:20.258Z,967.12
2018-10-16T01:59:20.177Z,967.13
2018-10-16T02:00:20.168Z,967.09
2018-10-16T02:01:20.083Z,967.13
2018-10-16T02:02:20.030Z,967.14
2018-10-16T02:03:19.974Z,967.16
2018-10-16T02:04:19.951Z,967.16
2018-10-16T02:05:19.912Z,967.16
2018-10-16T02:06:19.864Z,967.16
2018-10-16T02:07:19.831Z,967.19
2018-10-16T02:08:19.726Z,967.18
2018-10-16T02:09:19.682Z,967.17
2018-10-16T02:10:19.631Z,967.15
2018-10-16T02:11:19.606Z,967.15
2018-10-16T02:12:19.524Z,967.17
2018-10-16T02:13:19.474Z,967.18
2018-10-16T02:14:19.456Z,967.21
2018-10-16T02:15:19.378Z,967.20
2018-10-16T02:16:19.327Z,967.25
2018-10-16T02:17:19.279Z,967.24
2018-10-16T02:18:19.239Z,967.28
2018-10-16T02:19:19.208Z,967.23
2018-10-16T02:20:19.128Z,967.24
2018-10-16T02:21:19.082Z,967.25
2018-10-16T02:22:19.049Z,967.27
2018-10-16T02:23:18.974Z,967.31
2018-10-16T02:24:18.925Z,967.27
2018-10-16T02:25:18.879Z,967.26
2018-10-16T02:26:18.827Z,967.28
2018-10-16T02:27:18.809Z,967.27
2018-10-16T02:28:18.728Z,967.28
2018-10-16T02:29:18.683Z,967.27
2018-10-16T02:30:18.660Z,967.29
2018-10-16T02:31:18.572Z,967.36
2018-10-16T02:32:18.527Z,967.38
2018-10-16T02:33:18.474Z,967.35
2018-10-16T02:34:18.503Z,967.39
2018-10-16T02:35:18.376Z,967.36
2018-10-16T02:36:18.323Z,967.33
2018-10-16T02:37:18.278Z,967.37
2018-10-16T02:38:18.224Z,967.36
2018-10-16T02:39:18.204Z,967.34
2018-10-16T02:40:18.145Z,967.37
2018-10-16T02:41:18.098Z,967.37
2018-10-16T02:42:18.021Z,967.36
2018-10-16T02:43:18.023Z,967.37
2018-10-16T02:44:17.920Z,967.38
2018-10-16T02:45:17.875Z,967.40
2018-10-16T02:46:17.861Z,967.41
2018-10-16T02:47:17.770Z,967.40
2018-10-16T02:48:17.723Z,967.40
2018-10-16T02:49:17.675Z,967.43
2018-10-16T02:50:17.621Z,967.41
2018-10-16T02:51:17.614Z,967.43
2018-10-16T02:52:17.522Z,967.41
2018-10-16T02:53:17.469Z,967.39
2018-10-16T02:54:17.423Z,967.38
2018-10-16T02:55:17.407Z,967.39
2018-10-16T02:56:17.319Z,967.42
2018-10-16T02:57:17.317Z,967.40
2018-10-16T02:58:17.219Z,967.40
2018-10-16T02:59:17.210Z,967.44
2018-10-16T03:00:17.125Z,967.42
2018-10-16T03:01:17.069Z,967.46
2018-10-16T03:02:17.018Z,967.44
2018-10-16T03:03:16.966Z,967.45
2018-10-16T03:04:16.952Z,967.46
2018-10-16T03:05:16.875Z,967.46
2018-10-16T03:06:16.851Z,967.48
2018-10-16T03:07:16.772Z,967.48
2018-10-16T03:08:16.735Z,967.46
2018-10-16T03:09:16.678Z,967.48
2018-10-16T03:10:16.650Z,967.52
2018-10-16T03:11:16.564Z,967.52
2018-10-16T03:12:16.515Z,967.52
2018-10-16T03:13:16.472Z,967.54
2018-10-16T03:14:16.415Z,967.49
2018-10-16T03:15:16.405Z,967.53
2018-10-16T03:16:16.340Z,967.55
2018-10-16T03:17:16.262Z,967.58
2018-10-16T03:18:16.248Z,967.57
2018-10-16T03:19:16.159Z,967.57
2018-10-16T03:20:16.132Z,967.56
2018-10-16T03:21:16.062Z,967.53
2018-10-16T03:22:16.010Z,967.52
2018-10-16T03:23:15.990Z,967.58
2018-10-16T03:24:15.909Z,967.56
2018-10-16T03:25:15.884Z,967.56
2018-10-16T03:26:15.839Z,967.55
2018-10-16T03:27:15.796Z,967.56
2018-10-16T03:28:15.707Z,967.56
2018-10-16T03:29:15.657Z,967.54
2018-10-16T03:30:15.609Z,967.55
2018-10-16T03:31:15.564Z,967.55
2018-10-16T03:32:15.533Z,967.53
2018-10-16T03:33:15.492Z,967.55
2018-10-16T03:34:15.453Z,967.59
2018-10-16T03:35:15.358Z,967.58
2018-10-16T03:36:15.307Z,967.60
2018-10-16T03:37:15.254Z,967.57
2018-10-16T03:38:15.208Z,967.60
2018-10-16T03:39:15.186Z,967.54
2018-10-16T03:40:15.101Z,967.56
2018-10-16T03:41:15.062Z,967.62
2018-10-16T03:42:15.000Z,967.62
2018-10-16T03:43:14.954Z,967.61
2018-10-16T03:44:14.941Z,967.62
2018-10-16T03:45:14.849Z,967.62
2018-10-16T03:46:14.800Z,967.64
2018-10-16T03:47:14.783Z,967.69
2018-10-16T03:48:14.701Z,967.72
2018-10-16T03:49:14.649Z,967.70
2018-10-16T03:50:14.600Z,967.70
2018-10-16T03:51:14.547Z,967.72
2018-10-16T03:52:14.556Z,967.69
2018-10-16T03:53:14.444Z,967.63
2018-10-16T03:54:14.428Z,967.67
2018-10-16T03:55:14.349Z,967.69
2018-10-16T03:56:14.298Z,967.71
2018-10-16T03:57:14.303Z,967.69
2018-10-16T03:58:14.196Z,967.69
2018-10-16T03:59:14.183Z,967.67
2018-10-16T04:00:14.090Z,967.66
2018-10-16T04:01:14.045Z,967.68
2018-10-16T04:02:13.994Z,967.67
2018-10-16T04:03:13.950Z,967.63
2018-10-16T04:04:13.921Z,967.64
2018-10-16T04:05:13.847Z,967.64
2018-10-16T04:06:13.787Z,967.60
2018-10-16T04:07:13.739Z,967.60
2018-10-16T04:08:13.720Z,967.64
2018-10-16T04:09:13.669Z,967.64
2018-10-16T04:10:13.591Z,967.66
2018-10-16T04:11:13.536Z,967.66
2018-10-16T04:12:13.485Z,967.64
2018-10-16T04:13:13.467Z,967.67
2018-10-16T04:14:13.390Z,967.66
2018-10-16T04:15:13.334Z,967.64
2018-10-16T04:16:13.285Z,967.68
2018-10-16T04:17:13.245Z,967.65
2018-10-16T04:18:13.219Z,967.63
2018-10-16T04:19:13.156Z,967.62
2018-10-16T04:20:13.114Z,967.65
2018-10-16T04:21:13.062Z,967.67
2018-10-16T04:22:13.000Z,967.67
2018-10-16T04:23:12.937Z,967.64
2018-10-16T04:24:12.879Z,967.67
2018-10-16T04:25:12.870Z,967.67
2018-10-16T04:26:12.784Z,967.70
2018-10-16T04:27:12.728Z,967.69
2018-10-16T04:28:12.683Z,967.71
2018-10-16T04:29:12.686Z,967.68
2018-10-16T04:30:12.623Z,967.71
2018-10-16T04:31:12.520Z,967.68
2018-10-16T04:32:12.470Z,967.71
2018-10-16T04:33:12.425Z,967.69
2018-10-16T04:34:12.367Z,967.71
2018-10-16T04:35:12.348Z,967.71
2018-10-16T04:36:12.272Z,967.71
2018-10-16T04:37:12.226Z,967.74
2018-10-16T04:38:12.212Z,967.76
2018-10-16T04:39:12.130Z,967.75
2018-10-16T04:40:12.067Z,967.76
2018-10-16T04:41:12.018Z,967.79
2018-10-16T04:42:11.977Z,967.80
2018-10-16T04:43:11.955Z,967.80
2018-10-16T04:44:11.879Z,967.81
2018-10-16T04:45:11.812Z,967.83
2018-10-16T04:46:11.764Z,967.82
2018-10-16T04:47:11.713Z,967.84
2018-10-16T04:48:11.687Z,967.86
2018-10-16T04:49:11.610Z,967.84
2018-10-16T04:50:11.563Z,967.85
2018-10-16T04:51:11.539Z,967.86
2018-10-16T04:52:11.490Z,967.89
2018-10-16T04:53:11.411Z,967.89
2018-10-16T04:54:11.392Z,967.91
2018-10-16T04:55:11.378Z,967.92
2018-10-16T04:56:11.253Z,967.91
2018-10-16T04:57:11.202Z,967.94
2018-10-16T04:58:11.149Z,967.94
2018-10-16T04:59:11.135Z,967.94
2018-10-16T05:00:11.050Z,967.91
2018-10-16T05:01:11.021Z,967.93
2018-10-16T05:02:10.951Z,967.95
2018-10-16T05:03:10.895Z,967.96
2018-10-16T05:04:10.992Z,967.94
2018-10-16T05:05:10.797Z,967.93
2018-10-16T05:06:10.745Z,967.96
2018-10-16T05:07:10.693Z,967.97
2018-10-16T05:08:10.640Z,968.00
2018-10-16T05:09:10.630Z,968.02
2018-10-16T05:10:10.546Z,968.02
2018-10-16T05:11:10.523Z,968.03
2018-10-16T05:12:10.509Z,968.04
2018-10-16T05:13:10.468Z,968.01
2018-10-16T05:14:10.341Z,968.03
2018-10-16T05:15:10.290Z,968.03
2018-10-16T05:16:10.238Z,968.06
2018-10-16T05:17:10.238Z,968.10
2018-10-16T05:18:10.136Z,968.07
2018-10-16T05:19:10.123Z,968.07
2018-10-16T05:20:10.034Z,968.07
2018-10-16T05:21:09.986Z,968.08
2018-10-16T05:22:09.981Z,968.05
2018-10-16T05:23:09.879Z,968.08
2018-10-16T05:24:09.831Z,968.05
2018-10-16T05:25:09.779Z,968.09
2018-10-16T05:26:09.764Z,968.10
2018-10-16T05:27:09.711Z,968.06
2018-10-16T05:28:09.635Z,968.07
2018-10-16T05:29:09.579Z,968.07
2018-10-16T05:30:09.525Z,968.10
2018-10-16T05:31:09.517Z,968.09
2018-10-16T05:32:09.448Z,968.09
2018-10-16T05:33:09.377Z,968.09
2018-10-16T05:34:09.324Z,968.14
2018-10-16T05:35:09.307Z,968.11
2018-10-16T05:36:09.233Z,968.14
2018-10-16T05:37:09.190Z,968.11
2018-10-16T05:38:09.121Z,968.17
2018-10-16T05:39:09.088Z,968.13
2018-10-16T05:40:09.050Z,968.15
2018-10-16T05:41:08.972Z,968.18
2018-10-16T05:42:08.914Z,968.17
2018-10-16T05:43:08.902Z,968.18
2018-10-16T05:44:08.813Z,968.15
2018-10-16T05:45:08.764Z,968.14
2018-10-16T05:46:08.717Z,968.15
2018-10-16T05:47:08.660Z,968.16
2018-10-16T05:48:08.659Z,968.17
2018-10-16T05:49:08.559Z,968.18
2018-10-16T05:50:08.510Z,968.23
2018-10-16T05:51:08.454Z,968.22
2018-10-16T05:52:08.406Z,968.22
2018-10-16T05:53:08.387Z,968.23
2018-10-16T05:54:08.365Z,968.27
2018-10-16T05:55:08.278Z,968.25
2018-10-16T05:56:08.202Z,968.31
2018-10-16T05:57:08.184Z,968.32
2018-10-16T05:58:08.102Z,968.28
2018-10-16T05:59:08.081Z,968.28
2018-10-16T06:00:08.006Z,968.31
2018-10-16T06:01:08.002Z,968.30
2018-10-16T06:02:07.921Z,968.33
2018-10-16T06:03:07.846Z,968.28
2018-10-16T06:04:07.799Z,968.25
2018-10-16T06:05:07.745Z,968.29
2018-10-16T06:06:07.728Z,968.26
2018-10-16T06:07:07.643Z,968.29
2018-10-16T06:08:07.592Z,968.28
2018-10-16T06:09:07.573Z,968.29
2018-10-16T06:10:07.508Z,968.33
2018-10-16T06:11:07.442Z,968.34
2018-10-16T06:12:07.444Z,968.32
2018-10-16T06:13:07.346Z,968.37
2018-10-16T06:14:07.321Z,968.37
2018-10-16T06:15:07.243Z,968.37
2018-10-16T06:16:07.246Z,968.40
2018-10-16T06:17:07.137Z,968.40
2018-10-16T06:18:07.086Z,968.44
2018-10-16T06:19:07.068Z,968.42
2018-10-16T06:20:06.983Z,968.44
2018-10-16T06:21:06.935Z,968.45
2018-10-16T06:22:06.884Z,968.44
2018-10-16T06:23:06.835Z,968.44
2018-10-16T06:24:06.845Z,968.49
2018-10-16T06:25:06.731Z,968.51
2018-10-16T06:26:06.681Z,968.49
2018-10-16T06:27:06.638Z,968.49
2018-10-16T06:28:06.579Z,968.50
2018-10-16T06:29:06.560Z,968.50
2018-10-16T06:30:06.483Z,968.50
2018-10-16T06:31:06.427Z,968.51
2018-10-16T06:32:06.386Z,968.50
2018-10-16T06:33:06.343Z,968.52
2018-10-16T06:34:06.313Z,968.56
2018-10-16T06:35:06.232Z,968.58
2018-10-16T06:36:06.179Z,968.56
2018-10-16T06:37:06.161Z,968.55
2018-10-16T06:38:06.077Z,968.59
2018-10-16T06:39:06.033Z,968.57
2018-10-16T06:40:06.008Z,968.56
2018-10-16T06:41:06.196Z,968.60
2018-10-16T06:42:05.884Z,968.60
2018-10-16T06:43:05.878Z,968.67
2018-10-16T06:44:05.777Z,968.67
2018-10-16T06:45:05.729Z,968.69
2018-10-16T06:46:05.678Z,968.68
2018-10-16T06:47:05.631Z,968.71
2018-10-16T06:48:05.741Z,968.83
2018-10-16T06:49:05.547Z,969.02
2018-10-16T06:50:05.481Z,969.10
2018-10-16T06:51:05.453Z,969.13
2018-10-16T06:52:05.381Z,969.15
2018-10-16T06:53:05.386Z,969.11
2018-10-16T06:54:05.289Z,969.13
2018-10-16T06:55:05.299Z,969.17
2018-10-16T06:56:05.198Z,969.19
2018-10-16T06:57:05.154Z,969.15
2018-10-16T06:58:05.146Z,969.21
2018-10-16T06:59:05.062Z,969.16
2018-10-16T07:00:05.036Z,969.20
2018-10-16T07:01:04.991Z,969.21
2018-10-16T07:02:04.934Z,969.26
2018-10-16T07:03:04.939Z,969.24
2018-10-16T07:04:04.850Z,969.21
2018-10-16T07:05:04.844Z,969.26
2018-10-16T07:06:04.771Z,969.22
2018-10-16T07:07:04.809Z,969.17
2018-10-16T07:08:04.697Z,969.21
2018-10-16T07:09:04.656Z,969.21
2018-10-16T07:10:04.653Z,969.22
2018-10-16T07:11:04.574Z,969.31
2018-10-16T07:12:04.538Z,969.33
2018-10-16T07:13:04.497Z,969.40
2018-10-16T07:14:04.462Z,969.41
2018-10-16T07:15:04.506Z,969.41
2018-10-16T07:16:04.380Z,969.32
2018-10-16T07:17:04.347Z,969.32
2018-10-16T07:18:04.307Z,969.46
2018-10-16T07:19:04.269Z,969.50
2018-10-16T07:20:04.254Z,969.49
2018-10-16T07:21:04.251Z,969.48
2018-10-16T07:22:04.166Z,969.52
2018-10-16T07:23:04.119Z,969.51
2018-10-16T07:24:04.188Z,969.56
2018-10-16T07:25:04.054Z,969.56
2018-10-16T07:26:04.021Z,969.53
2018-10-16T07:27:04.006Z,969.54
2018-10-16T07:28:03.945Z,969.56
2018-10-16T07:29:03.970Z,969.59
2018-10-16T07:30:03.999Z,969.61
2018-10-16T07:31:03.834Z,969.68
2018-10-16T07:32:03.828Z,969.69
2018-10-16T07:33:03.766Z,969.69
2018-10-16T07:34:03.738Z,969.69
2018-10-16T07:35:03.738Z,969.70
2018-10-16T07:36:03.663Z,969.71
2018-10-16T07:37:03.629Z,969.69
2018-10-16T07:38:03.706Z,969.69
2018-10-16T07:39:03.656Z,969.71
2018-10-16T07:40:03.567Z,969.67
2018-10-16T07:41:03.554Z,969.72
2018-10-16T07:42:03.458Z,969.70
2018-10-16T07:43:03.428Z,969.61
2018-10-16T07:44:03.424Z,969.52
2018-10-16T07:45:03.367Z,969.65
2018-10-16T07:46:03.376Z,969.75
2018-10-16T07:47:03.309Z,969.76
2018-10-16T07:48:03.261Z,969.70
2018-10-16T07:49:03.228Z,969.44
2018-10-16T07:50:03.213Z,969.50
2018-10-16T07:51:03.191Z,969.77
2018-10-16T07:52:03.138Z,969.83
2018-10-16T07:53:03.110Z,969.82
2018-10-16T07:54:03.063Z,969.71
2018-10-16T07:55:03.032Z,969.72
2018-10-16T07:56:03.053Z,969.78
2018-10-16T07:57:03.024Z,969.48
2018-10-16T07:58:02.946Z,969.81
2018-10-16T07:59:02.903Z,969.77
2018-10-16T08:00:02.869Z,969.86
2018-10-16T08:01:02.880Z,969.84
2018-10-16T08:02:02.803Z,969.85
2018-10-16T08:03:02.775Z,969.84
2018-10-16T08:04:02.746Z,969.83
2018-10-16T08:05:02.702Z,969.86
2018-10-16T08:06:02.700Z,969.86
2018-10-16T08:07:02.658Z,969.92
2018-10-16T08:08:02.606Z,969.91
2018-10-16T08:09:02.605Z,969.92
2018-10-16T08:10:02.545Z,969.90
2018-10-16T08:11:02.510Z,969.93
2018-10-16T08:12:02.488Z,969.93
2018-10-16T08:13:02.503Z,969.92
2018-10-16T08:14:02.417Z,969.89
2018-10-16T08:15:02.391Z,969.88
2018-10-16T08:16:02.378Z,969.89
2018-10-16T08:17:02.347Z,969.69
2018-10-16T08:18:02.350Z,969.84
2018-10-16T08:19:02.266Z,969.87
2018-10-16T08:20:02.235Z,969.86
2018-10-16T08:21:02.196Z,969.90
2018-10-16T08:22:02.186Z,969.90
2018-10-16T08:23:02.161Z,969.90
2018-10-16T08:24:02.106Z,969.94
2018-10-16T08:25:02.092Z,969.89
2018-10-16T08:26:02.043Z,969.90
2018-10-16T08:27:02.047Z,969.91
2018-10-16T08:28:01.985Z,969.91
2018-10-16T08:29:01.954Z,969.92
2018-10-16T08:30:01.972Z,969.80
2018-10-16T08:31:01.916Z,969.62
2018-10-16T08:32:01.895Z,969.73
2018-10-16T08:33:01.832Z,969.52
2018-10-16T08:34:01.874Z,969.47
2018-10-16T08:35:01.768Z,969.56
2018-10-16T08:36:01.850Z,969.88
2018-10-16T08:37:01.797Z,969.93
2018-10-16T08:38:01.678Z,969.87
2018-10-16T08:39:01.647Z,969.83
2018-10-16T08:40:01.644Z,969.81
2018-10-16T08:41:01.622Z,969.83
2018-10-16T08:42:01.651Z,969.81
2018-10-16T08:43:01.553Z,969.76
2018-10-16T08:44:01.491Z,969.74
2018-10-16T08:45:01.548Z,969.70
2018-10-16T08:46:01.451Z,969.57
2018-10-16T08:47:01.436Z,969.54
2018-10-16T08:48:01.365Z,969.54
2018-10-16T08:49:01.354Z,969.60
2018-10-16T08:50:01.312Z,969.67
2018-10-16T08:51:01.271Z,969.72
2018-10-16T08:52:01.272Z,969.71
2018-10-16T08:53:01.214Z,969.67
2018-10-16T08:54:01.181Z,969.68
2018-10-16T08:55:01.257Z,969.68
2018-10-16T08:56:01.149Z,969.60
2018-10-16T08:57:01.083Z,969.54
2018-10-16T08:58:01.048Z,969.49
2018-10-16T08:59:01.045Z,969.44
2018-10-16T09:00:00.984Z,969.45
2018-10-16T09:01:00.963Z,969.43
2018-10-16T09:02:00.921Z,969.42
2018-10-16T09:03:00.890Z,969.36
2018-10-16T09:04:00.906Z,969.39
2018-10-16T09:05:00.827Z,969.39
2018-10-16T09:06:00.797Z,969.38
2018-10-16T09:07:00.818Z,969.35
2018-10-16T09:08:00.730Z,969.35
2018-10-16T09:09:00.757Z,969.38
2018-10-16T09:10:00.667Z,969.36
2018-10-16T09:11:00.640Z,969.38
2018-10-16T09:12:00.599Z,969.40
2018-10-16T09:13:00.634Z,969.36
2018-10-16T09:14:00.598Z,969.34
2018-10-16T09:15:00.506Z,969.37
2018-10-16T09:16:00.489Z,969.37
2018-10-16T09:17:00.448Z,969.39
2018-10-16T09:18:00.412Z,969.44
2018-10-16T09:19:00.417Z,969.45
2018-10-16T09:20:00.344Z,969.44
2018-10-16T09:21:00.313Z,969.47
2018-10-16T09:22:00.287Z,969.47
2018-10-16T09:23:00.250Z,969.46
2018-10-16T09:24:00.251Z,969.48
2018-10-16T09:25:00.206Z,969.50
2018-10-16T09:26:00.153Z,969.52
2018-10-16T09:27:00.154Z,969.47
2018-10-16T09:28:00.088Z,969.52
2018-10-16T09:29:00.095Z,969.52
2018-10-16T09:30:00.027Z,969.50
2018-10-16T09:30:59.993Z,969.52
2018-10-16T09:31:59.954Z,969.55
2018-10-16T09:32:59.922Z,969.43
2018-10-16T09:33:59.923Z,969.41
2018-10-16T09:34:59.856Z,969.38
2018-10-16T09:35:59.826Z,969.45
2018-10-16T09:36:59.792Z,969.48
2018-10-16T09:37:59.799Z,969.49
2018-10-16T09:38:59.755Z,969.47
2018-10-16T09:39:59.691Z,969.45
2018-10-16T09:40:59.669Z,969.44
2018-10-16T09:41:59.625Z,969.45
2018-10-16T09:42:59.619Z,969.46
2018-10-16T09:43:59.591Z,969.46
2018-10-16T09:44:59.527Z,969.53
2018-10-16T09:45:59.498Z,969.50
2018-10-16T09:46:59.458Z,969.48
2018-10-16T09:47:59.458Z,969.53
2018-10-16T09:48:59.434Z,969.51
2018-10-16T09:49:59.371Z,969.51
2018-10-16T09:50:59.330Z,969.43
2018-10-16T09:51:59.346Z,969.54
2018-10-16T09:52:59.265Z,969.55
2018-10-16T09:53:59.232Z,969.58
2018-10-16T09:54:59.207Z,969.47
2018-10-16T09:55:59.161Z,969.46
2018-10-16T09:56:59.163Z,969.50
2018-10-16T09:57:59.089Z,969.48
2018-10-16T09:58:59.052Z,969.54
2018-10-16T09:59:59.022Z,969.52
2018-10-16T10:00:59.020Z,969.55
2018-10-16T10:01:58.983Z,969.48
2018-10-16T10:02:58.914Z,969.44
2018-10-16T10:03:58.879Z,969.39
2018-10-16T10:04:58.851Z,969.35
2018-10-16T10:05:58.814Z,969.34
2018-10-16T10:06:58.805Z,969.35
2018-10-16T10:07:58.743Z,969.31
2018-10-16T10:08:58.703Z,969.29
2018-10-16T10:09:58.675Z,969.32
2018-10-16T10:10:58.706Z,969.37
2018-10-16T10:11:58.659Z,969.41
2018-10-16T10:12:58.562Z,969.41
2018-10-16T10:13:58.527Z,969.39
2018-10-16T10:14:58.491Z,969.36
2018-10-16T10:15:58.493Z,969.45
2018-10-16T10:16:58.419Z,969.39
2018-10-16T10:17:58.397Z,969.49
2018-10-16T10:18:58.351Z,969.41
2018-10-16T10:19:58.308Z,969.40
2018-10-16T10:20:58.325Z,969.34
2018-10-16T10:21:58.240Z,969.38
2018-10-16T10:22:58.207Z,969.38
2018-10-16T10:23:58.206Z,969.45
2018-10-16T10:24:58.134Z,969.39
2018-10-16T10:25:58.092Z,969.40
2018-10-16T10:26:58.051Z,969.37
2018-10-16T10:27:58.017Z,969.43
2018-10-16T10:28:58.012Z,969.42
2018-10-16T10:29:57.942Z,969.43
2018-10-16T10:30:57.928Z,969.49
2018-10-16T10:31:57.868Z,969.51
2018-10-16T10:32:57.831Z,969.46
2018-10-16T10:33:57.793Z,969.51
2018-10-16T10:34:57.757Z,969.44
2018-10-16T10:35:57.752Z,969.44
2018-10-16T10:36:57.683Z,969.43
2018-10-16T10:37:57.643Z,969.40
2018-10-16T10:38:57.606Z,969.39
2018-10-16T10:39:57.604Z,969.36
2018-10-16T10:40:57.532Z,969.35
2018-10-16T10:41:57.537Z,969.35
2018-10-16T10:42:57.460Z,969.36
2018-10-16T10:43:57.421Z,969.37
2018-10-16T10:44:57.383Z,969.36
2018-10-16T10:45:57.346Z,969.37
2018-10-16T10:46:57.341Z,969.38
2018-10-16T10:47:57.270Z,969.39
2018-10-16T10:48:57.232Z,969.37
2018-10-16T10:49:57.392Z,969.36
2018-10-16T10:50:57.344Z,969.35
2018-10-16T10:51:57.149Z,969.33
2018-10-16T10:52:57.125Z,969.34
2018-10-16T10:53:57.041Z,969.36
2018-10-16T10:54:57.003Z,969.34
2018-10-16T10:55:56.992Z,969.35
2018-10-16T10:56:57.090Z,969.34
2018-10-16T10:57:56.921Z,969.34
2018-10-16T10:58:56.874Z,969.31
2018-10-16T10:59:56.813Z,969.31
2018-10-16T11:00:56.777Z,969.29
2018-10-16T11:01:56.736Z,969.29
2018-10-16T11:02:56.767Z,969.29
2018-10-16T11:03:56.791Z,969.31
2018-10-16T11:04:56.629Z,969.38
2018-10-16T11:05:56.596Z,969.33
2018-10-16T11:06:56.545Z,969.23
2018-10-16T11:07:56.508Z,969.23
2018-10-16T11:08:56.517Z,969.24
2018-10-16T11:09:56.436Z,969.23
2018-10-16T11:10:56.421Z,969.22
2018-10-16T11:11:56.354Z,969.24
2018-10-16T11:12:56.315Z,969.27
2018-10-16T11:13:56.280Z,969.26
2018-10-16T11:14:56.322Z,969.25
2018-10-16T11:15:56.199Z,969.30
2018-10-16T11:16:56.160Z,969.28
2018-10-16T11:17:56.124Z,969.28
2018-10-16T11:18:56.087Z,969.27
2018-10-16T11:19:56.075Z,969.24
2018-10-16T11:20:56.049Z,969.24
2018-10-16T11:21:56.002Z,969.21
2018-10-16T11:22:55.929Z,969.33
2018-10-16T11:23:55.891Z,969.22
2018-10-16T11:24:55.874Z,969.23
2018-10-16T11:25:55.849Z,969.18
2018-10-16T11:26:55.842Z,969.13
2018-10-16T11:27:55.754Z,969.13
2018-10-16T11:28:55.728Z,969.15
2018-10-16T11:29:55.659Z,969.23
2018-10-16T11:30:55.621Z,969.13
2018-10-16T11:31:55.581Z,969.11
2018-10-16T11:32:55.563Z,969.09
2018-10-16T11:33:55.572Z,969.09
2018-10-16T11:34:55.462Z,969.15
2018-10-16T11:35:55.460Z,969.08
2018-10-16T11:36:55.421Z,969.08
2018-10-16T11:37:55.347Z,969.08
2018-10-16T11:38:55.357Z,969.08
2018-10-16T11:39:55.271Z,969.08
2018-10-16T11:40:55.229Z,969.06
2018-10-16T11:41:55.189Z,969.09
2018-10-16T11:42:55.162Z,969.12
2018-10-16T11:43:55.146Z,969.18
2018-10-16T11:44:55.371Z,969.21
2018-10-16T11:45:55.042Z,969.21
2018-10-16T11:46:54.999Z,969.25
2018-10-16T11:47:54.990Z,969.18
2018-10-16T11:48:54.922Z,969.20
2018-10-16T11:49:54.940Z,969.19
2018-10-16T11:50:54.882Z,969.20
2018-10-16T11:51:54.812Z,969.24
2018-10-16T11:52:54.772Z,969.24
2018-10-16T11:53:54.733Z,969.24
2018-10-16T11:54:54.714Z,969.17
2018-10-16T11:55:54.662Z,969.17
2018-10-16T11:56:54.619Z,969.20
2018-10-16T11:57:54.574Z,969.23
2018-10-16T11:58:54.534Z,969.16
2018-10-16T11:59:54.545Z,969.27
2018-10-16T12:00:54.461Z,969.24
2018-10-16T12:01:54.431Z,969.26
2018-10-16T12:02:54.379Z,969.25
2018-10-16T12:03:54.348Z,969.22
2018-10-16T12:04:54.349Z,969.24
2018-10-16T12:05:54.315Z,969.18
2018-10-16T12:06:54.265Z,969.16
2018-10-16T12:07:54.200Z,969.15
2018-10-16T12:08:54.181Z,969.17
2018-10-16T12:09:54.151Z,969.16
2018-10-16T12:10:54.077Z,969.19
2018-10-16T12:11:54.039Z,969.16
2018-10-16T12:12:54.064Z,969.15
2018-10-16T12:13:54.012Z,969.14
2018-10-16T12:14:54.057Z,969.16
2018-10-16T12:15:53.885Z,969.13
2018-10-16T12:16:53.955Z,969.15
2018-10-16T12:17:53.810Z,969.14
2018-10-16T12:18:53.776Z,969.18
2018-10-16T12:19:53.837Z,969.18
2018-10-16T12:20:53.739Z,969.14
2018-10-16T12:21:53.690Z,969.15
2018-10-16T12:22:53.618Z,969.17
2018-10-16T12:23:53.595Z,969.21
2018-10-16T12:24:53.596Z,969.18
2018-10-16T12:25:53.525Z,969.19
2018-10-16T12:26:53.530Z,969.21
2018-10-16T12:27:53.425Z,969.25